sensor_id;sensor_type;location;lat;lon;timestamp;P1;durP1;ratioP1;P2;durP2;ratioP2
5465;SDS011;2755;50.728;7.108;2024-01-16T00:01:14;113.10;;;29.23;;
5465;SDS011;2755;50.728;7.108;2024-01-16T00:03:41;114.37;;;30.67;;
5465;SDS011;2755;50.728;7.108;2024-01-16T00:06:07;116.10;;;30.80;;
5465;SDS011;2755;50.728;7.108;2024-01-16T00:08:33;115.20;;;32.20;;
5465;SDS011;2755;50.728;7.108;2024-01-16T00:10:58;115.50;;;31.60;;
5465;SDS011;2755;50.728;7.108;2024-01-16T00:13:24;116.07;;;33.70;;
5465;SDS011;2755;50.728;7.108;2024-01-16T00:15:50;114.27;;;31.53;;
5465;SDS011;2755;50.728;7.108;2024-01-16T00:18:16;114.57;;;32.77;;
5465;SDS011;2755;50.728;7.108;2024-01-16T00:20:41;116.07;;;33.20;;
5465;SDS011;2755;50.728;7.108;2024-01-16T00:23:07;114.87;;;31.60;;
5465;SDS011;2755;50.728;7.108;2024-01-16T00:25:33;115.47;;;32.73;;
5465;SDS011;2755;50.728;7.108;2024-01-16T00:27:59;116.37;;;33.87;;
5465;SDS011;2755;50.728;7.108;2024-01-16T00:30:26;115.07;;;32.07;;
5465;SDS011;2755;50.728;7.108;2024-01-16T00:32:52;113.87;;;32.70;;
5465;SDS011;2755;50.728;7.108;2024-01-16T00:35:18;116.57;;;33.67;;
5465;SDS011;2755;50.728;7.108;2024-01-16T00:37:44;114.40;;;32.17;;
5465;SDS011;2755;50.728;7.108;2024-01-16T00:40:10;117.20;;;35.67;;
5465;SDS011;2755;50.728;7.108;2024-01-16T00:42:36;120.27;;;35.70;;
5465;SDS011;2755;50.728;7.108;2024-01-16T00:45:02;118.60;;;32.07;;
5465;SDS011;2755;50.728;7.108;2024-01-16T00:47:28;114.37;;;31.27;;
5465;SDS011;2755;50.728;7.108;2024-01-16T00:49:54;118.50;;;35.93;;
5465;SDS011;2755;50.728;7.108;2024-01-16T00:52:19;116.77;;;33.37;;
5465;SDS011;2755;50.728;7.108;2024-01-16T00:54:45;116.47;;;34.27;;
5465;SDS011;2755;50.728;7.108;2024-01-16T00:57:11;118.27;;;36.17;;
5465;SDS011;2755;50.728;7.108;2024-01-16T00:59:37;121.70;;;34.20;;
5465;SDS011;2755;50.728;7.108;2024-01-16T01:02:03;116.57;;;33.77;;
5465;SDS011;2755;50.728;7.108;2024-01-16T01:04:29;113.90;;;30.57;;
5465;SDS011;2755;50.728;7.108;2024-01-16T01:06:57;117.17;;;34.70;;
5465;SDS011;2755;50.728;7.108;2024-01-16T01:09:23;116.47;;;33.83;;
5465;SDS011;2755;50.728;7.108;2024-01-16T01:11:48;116.70;;;32.50;;
5465;SDS011;2755;50.728;7.108;2024-01-16T01:14:14;115.27;;;32.23;;
5465;SDS011;2755;50.728;7.108;2024-01-16T01:16:40;117.87;;;32.80;;
5465;SDS011;2755;50.728;7.108;2024-01-16T01:19:06;115.97;;;30.83;;
5465;SDS011;2755;50.728;7.108;2024-01-16T01:21:32;115.33;;;30.70;;
5465;SDS011;2755;50.728;7.108;2024-01-16T01:23:57;114.80;;;29.63;;
5465;SDS011;2755;50.728;7.108;2024-01-16T01:26:23;114.80;;;31.13;;
5465;SDS011;2755;50.728;7.108;2024-01-16T01:28:49;115.17;;;32.27;;
5465;SDS011;2755;50.728;7.108;2024-01-16T01:31:14;115.27;;;31.77;;
5465;SDS011;2755;50.728;7.108;2024-01-16T01:33:40;115.43;;;32.00;;
5465;SDS011;2755;50.728;7.108;2024-01-16T01:36:06;115.47;;;32.97;;
5465;SDS011;2755;50.728;7.108;2024-01-16T01:38:32;115.77;;;32.67;;
5465;SDS011;2755;50.728;7.108;2024-01-16T01:40:57;113.80;;;28.60;;
5465;SDS011;2755;50.728;7.108;2024-01-16T01:43:23;114.57;;;30.30;;
5465;SDS011;2755;50.728;7.108;2024-01-16T01:46:08;116.77;;;34.60;;
5465;SDS011;2755;50.728;7.108;2024-01-16T01:48:37;114.80;;;28.40;;
5465;SDS011;2755;50.728;7.108;2024-01-16T01:51:04;116.83;;;33.90;;
5465;SDS011;2755;50.728;7.108;2024-01-16T01:53:31;114.40;;;31.27;;
5465;SDS011;2755;50.728;7.108;2024-01-16T01:55:58;114.97;;;31.30;;
5465;SDS011;2755;50.728;7.108;2024-01-16T01:58:27;113.43;;;28.70;;
5465;SDS011;2755;50.728;7.108;2024-01-16T02:00:54;115.80;;;30.23;;
5465;SDS011;2755;50.728;7.108;2024-01-16T02:03:20;116.70;;;31.73;;
5465;SDS011;2755;50.728;7.108;2024-01-16T02:05:48;113.87;;;29.00;;
5465;SDS011;2755;50.728;7.108;2024-01-16T02:08:14;114.50;;;30.27;;
5465;SDS011;2755;50.728;7.108;2024-01-16T02:10:40;113.43;;;28.13;;
5465;SDS011;2755;50.728;7.108;2024-01-16T02:13:10;116.17;;;29.00;;
5465;SDS011;2755;50.728;7.108;2024-01-16T02:15:36;111.77;;;26.70;;
5465;SDS011;2755;50.728;7.108;2024-01-16T02:18:04;113.67;;;29.63;;
5465;SDS011;2755;50.728;7.108;2024-01-16T02:20:30;114.67;;;30.60;;
5465;SDS011;2755;50.728;7.108;2024-01-16T02:22:56;116.40;;;34.60;;
5465;SDS011;2755;50.728;7.108;2024-01-16T02:25:28;114.93;;;30.10;;
5465;SDS011;2755;50.728;7.108;2024-01-16T02:27:54;115.70;;;32.10;;
5465;SDS011;2755;50.728;7.108;2024-01-16T02:30:19;115.03;;;33.20;;
5465;SDS011;2755;50.728;7.108;2024-01-16T02:32:45;114.57;;;31.70;;
5465;SDS011;2755;50.728;7.108;2024-01-16T02:35:11;112.97;;;30.50;;
5465;SDS011;2755;50.728;7.108;2024-01-16T02:37:37;115.97;;;33.50;;
5465;SDS011;2755;50.728;7.108;2024-01-16T02:40:03;114.77;;;31.60;;
5465;SDS011;2755;50.728;7.108;2024-01-16T02:42:31;117.17;;;33.27;;
5465;SDS011;2755;50.728;7.108;2024-01-16T02:45:01;114.40;;;30.10;;
5465;SDS011;2755;50.728;7.108;2024-01-16T02:47:28;115.37;;;32.17;;
5465;SDS011;2755;50.728;7.108;2024-01-16T02:49:54;115.37;;;31.67;;
5465;SDS011;2755;50.728;7.108;2024-01-16T02:52:20;116.30;;;33.60;;
5465;SDS011;2755;50.728;7.108;2024-01-16T02:54:46;115.47;;;30.87;;
5465;SDS011;2755;50.728;7.108;2024-01-16T02:57:12;115.47;;;31.43;;
5465;SDS011;2755;50.728;7.108;2024-01-16T02:59:37;117.03;;;31.13;;
5465;SDS011;2755;50.728;7.108;2024-01-16T03:02:03;116.23;;;34.20;;
5465;SDS011;2755;50.728;7.108;2024-01-16T03:04:29;116.00;;;31.77;;
5465;SDS011;2755;50.728;7.108;2024-01-16T03:06:55;114.00;;;30.50;;
5465;SDS011;2755;50.728;7.108;2024-01-16T03:09:21;111.87;;;27.57;;
5465;SDS011;2755;50.728;7.108;2024-01-16T03:11:47;115.03;;;31.97;;
5465;SDS011;2755;50.728;7.108;2024-01-16T03:14:13;114.50;;;30.30;;
5465;SDS011;2755;50.728;7.108;2024-01-16T03:16:39;114.10;;;31.20;;
5465;SDS011;2755;50.728;7.108;2024-01-16T03:19:05;115.50;;;31.33;;
5465;SDS011;2755;50.728;7.108;2024-01-16T03:21:31;115.57;;;33.57;;
5465;SDS011;2755;50.728;7.108;2024-01-16T03:23:56;113.60;;;31.10;;
5465;SDS011;2755;50.728;7.108;2024-01-16T03:26:22;113.17;;;29.70;;
5465;SDS011;2755;50.728;7.108;2024-01-16T03:31:49;114.77;;;28.43;;
5465;SDS011;2755;50.728;7.108;2024-01-16T03:34:14;113.83;;;31.00;;
5465;SDS011;2755;50.728;7.108;2024-01-16T03:36:40;113.83;;;30.90;;
5465;SDS011;2755;50.728;7.108;2024-01-16T03:39:06;113.07;;;26.93;;
5465;SDS011;2755;50.728;7.108;2024-01-16T03:41:31;119.27;;;32.43;;
5465;SDS011;2755;50.728;7.108;2024-01-16T03:43:57;114.27;;;32.43;;
5465;SDS011;2755;50.728;7.108;2024-01-16T03:46:23;113.67;;;29.57;;
5465;SDS011;2755;50.728;7.108;2024-01-16T03:48:49;116.30;;;31.60;;
5465;SDS011;2755;50.728;7.108;2024-01-16T03:51:15;114.43;;;30.53;;
5465;SDS011;2755;50.728;7.108;2024-01-16T03:53:42;116.17;;;33.07;;
5465;SDS011;2755;50.728;7.108;2024-01-16T03:56:08;113.70;;;29.77;;
5465;SDS011;2755;50.728;7.108;2024-01-16T03:58:34;116.37;;;35.50;;
5465;SDS011;2755;50.728;7.108;2024-01-16T04:00:59;116.23;;;34.00;;
5465;SDS011;2755;50.728;7.108;2024-01-16T04:03:25;115.20;;;32.87;;
5465;SDS011;2755;50.728;7.108;2024-01-16T04:05:51;117.40;;;32.10;;
5465;SDS011;2755;50.728;7.108;2024-01-16T04:08:17;117.10;;;36.60;;
5465;SDS011;2755;50.728;7.108;2024-01-16T04:10:43;116.13;;;33.27;;
5465;SDS011;2755;50.728;7.108;2024-01-16T04:13:08;115.40;;;31.70;;
5465;SDS011;2755;50.728;7.108;2024-01-16T04:15:37;113.70;;;29.60;;
5465;SDS011;2755;50.728;7.108;2024-01-16T04:18:03;114.57;;;30.20;;
5465;SDS011;2755;50.728;7.108;2024-01-16T04:20:29;113.77;;;29.10;;
5465;SDS011;2755;50.728;7.108;2024-01-16T04:22:55;114.97;;;30.87;;
5465;SDS011;2755;50.728;7.108;2024-01-16T04:25:21;113.80;;;30.40;;
5465;SDS011;2755;50.728;7.108;2024-01-16T04:27:47;114.00;;;30.60;;
5465;SDS011;2755;50.728;7.108;2024-01-16T04:30:13;112.77;;;29.20;;
5465;SDS011;2755;50.728;7.108;2024-01-16T04:32:38;114.17;;;31.37;;
5465;SDS011;2755;50.728;7.108;2024-01-16T04:35:04;114.77;;;30.60;;
5465;SDS011;2755;50.728;7.108;2024-01-16T04:37:30;113.13;;;28.33;;
5465;SDS011;2755;50.728;7.108;2024-01-16T04:39:55;116.03;;;30.53;;
5465;SDS011;2755;50.728;7.108;2024-01-16T04:42:23;112.80;;;29.10;;
5465;SDS011;2755;50.728;7.108;2024-01-16T04:44:48;113.47;;;28.77;;
5465;SDS011;2755;50.728;7.108;2024-01-16T04:47:14;114.20;;;30.93;;
5465;SDS011;2755;50.728;7.108;2024-01-16T04:49:41;111.50;;;27.47;;
5465;SDS011;2755;50.728;7.108;2024-01-16T04:52:07;112.97;;;29.27;;
5465;SDS011;2755;50.728;7.108;2024-01-16T04:54:33;116.97;;;31.20;;
5465;SDS011;2755;50.728;7.108;2024-01-16T04:56:58;114.60;;;30.27;;
5465;SDS011;2755;50.728;7.108;2024-01-16T04:59:24;112.07;;;26.10;;
5465;SDS011;2755;50.728;7.108;2024-01-16T05:01:50;112.30;;;27.03;;
5465;SDS011;2755;50.728;7.108;2024-01-16T05:04:16;114.23;;;30.40;;
5465;SDS011;2755;50.728;7.108;2024-01-16T05:06:42;113.73;;;29.77;;
5465;SDS011;2755;50.728;7.108;2024-01-16T05:09:08;111.80;;;27.10;;
5465;SDS011;2755;50.728;7.108;2024-01-16T05:11:36;111.87;;;26.67;;
5465;SDS011;2755;50.728;7.108;2024-01-16T05:14:01;115.07;;;29.20;;
5465;SDS011;2755;50.728;7.108;2024-01-16T05:16:27;114.37;;;29.53;;
5465;SDS011;2755;50.728;7.108;2024-01-16T05:18:53;113.00;;;29.07;;
5465;SDS011;2755;50.728;7.108;2024-01-16T05:21:19;115.50;;;27.50;;
5465;SDS011;2755;50.728;7.108;2024-01-16T05:23:45;114.77;;;27.27;;
5465;SDS011;2755;50.728;7.108;2024-01-16T05:26:11;114.20;;;29.97;;
5465;SDS011;2755;50.728;7.108;2024-01-16T05:28:38;112.60;;;28.57;;
5465;SDS011;2755;50.728;7.108;2024-01-16T05:31:04;113.80;;;28.33;;
5465;SDS011;2755;50.728;7.108;2024-01-16T05:33:29;112.90;;;28.03;;
5465;SDS011;2755;50.728;7.108;2024-01-16T05:35:56;111.07;;;26.67;;
5465;SDS011;2755;50.728;7.108;2024-01-16T05:38:22;114.70;;;29.60;;
5465;SDS011;2755;50.728;7.108;2024-01-16T05:40:48;114.10;;;30.73;;
5465;SDS011;2755;50.728;7.108;2024-01-16T05:43:14;112.17;;;27.80;;
5465;SDS011;2755;50.728;7.108;2024-01-16T05:45:40;111.90;;;26.60;;
5465;SDS011;2755;50.728;7.108;2024-01-16T05:48:06;113.40;;;27.83;;
5465;SDS011;2755;50.728;7.108;2024-01-16T05:50:34;115.87;;;28.70;;
5465;SDS011;2755;50.728;7.108;2024-01-16T05:53:01;112.17;;;28.17;;
5465;SDS011;2755;50.728;7.108;2024-01-16T05:55:27;112.83;;;26.50;;
5465;SDS011;2755;50.728;7.108;2024-01-16T05:57:54;113.40;;;28.40;;
5465;SDS011;2755;50.728;7.108;2024-01-16T06:00:19;115.30;;;32.50;;
5465;SDS011;2755;50.728;7.108;2024-01-16T06:02:47;114.87;;;29.73;;
5465;SDS011;2755;50.728;7.108;2024-01-16T06:05:13;114.10;;;29.93;;
5465;SDS011;2755;50.728;7.108;2024-01-16T06:07:39;116.97;;;31.37;;
5465;SDS011;2755;50.728;7.108;2024-01-16T06:10:05;113.73;;;29.17;;
5465;SDS011;2755;50.728;7.108;2024-01-16T06:12:38;112.33;;;29.37;;
5465;SDS011;2755;50.728;7.108;2024-01-16T06:15:05;112.23;;;27.63;;
5465;SDS011;2755;50.728;7.108;2024-01-16T06:17:31;114.93;;;29.60;;
5465;SDS011;2755;50.728;7.108;2024-01-16T06:19:57;114.00;;;29.57;;
5465;SDS011;2755;50.728;7.108;2024-01-16T06:22:22;112.13;;;28.87;;
5465;SDS011;2755;50.728;7.108;2024-01-16T06:24:49;113.73;;;28.97;;
5465;SDS011;2755;50.728;7.108;2024-01-16T06:27:15;113.40;;;31.10;;
5465;SDS011;2755;50.728;7.108;2024-01-16T06:29:44;114.47;;;29.77;;
5465;SDS011;2755;50.728;7.108;2024-01-16T06:32:10;115.07;;;31.47;;
5465;SDS011;2755;50.728;7.108;2024-01-16T06:34:37;115.07;;;30.03;;
5465;SDS011;2755;50.728;7.108;2024-01-16T06:37:02;112.83;;;29.37;;
5465;SDS011;2755;50.728;7.108;2024-01-16T06:39:28;112.73;;;28.23;;
5465;SDS011;2755;50.728;7.108;2024-01-16T06:41:54;112.57;;;28.33;;
5465;SDS011;2755;50.728;7.108;2024-01-16T06:44:20;113.50;;;30.00;;
5465;SDS011;2755;50.728;7.108;2024-01-16T06:46:45;114.27;;;31.20;;
5465;SDS011;2755;50.728;7.108;2024-01-16T06:49:11;113.87;;;31.03;;
5465;SDS011;2755;50.728;7.108;2024-01-16T06:51:37;115.47;;;32.30;;
5465;SDS011;2755;50.728;7.108;2024-01-16T06:54:03;115.60;;;31.07;;
5465;SDS011;2755;50.728;7.108;2024-01-16T06:56:30;115.97;;;32.22;;
5465;SDS011;2755;50.728;7.108;2024-01-16T06:58:56;115.97;;;32.20;;
5465;SDS011;2755;50.728;7.108;2024-01-16T07:01:22;116.40;;;33.80;;
5465;SDS011;2755;50.728;7.108;2024-01-16T07:03:48;113.40;;;29.77;;
5465;SDS011;2755;50.728;7.108;2024-01-16T07:06:14;116.63;;;34.77;;
5465;SDS011;2755;50.728;7.108;2024-01-16T07:08:55;114.37;;;30.33;;
5465;SDS011;2755;50.728;7.108;2024-01-16T07:11:20;116.03;;;29.53;;
5465;SDS011;2755;50.728;7.108;2024-01-16T07:13:46;113.20;;;29.70;;
5465;SDS011;2755;50.728;7.108;2024-01-16T07:16:11;113.70;;;28.67;;
5465;SDS011;2755;50.728;7.108;2024-01-16T07:18:39;111.70;;;27.23;;
5465;SDS011;2755;50.728;7.108;2024-01-16T07:21:15;113.57;;;29.47;;
5465;SDS011;2755;50.728;7.108;2024-01-16T07:23:44;112.10;;;26.87;;
5465;SDS011;2755;50.728;7.108;2024-01-16T07:26:10;113.10;;;28.67;;
5465;SDS011;2755;50.728;7.108;2024-01-16T07:28:36;110.27;;;24.43;;
5465;SDS011;2755;50.728;7.108;2024-01-16T07:31:02;114.40;;;27.63;;
5465;SDS011;2755;50.728;7.108;2024-01-16T07:33:28;112.77;;;25.77;;
5465;SDS011;2755;50.728;7.108;2024-01-16T07:35:53;111.57;;;26.37;;
5465;SDS011;2755;50.728;7.108;2024-01-16T07:38:19;110.27;;;23.67;;
5465;SDS011;2755;50.728;7.108;2024-01-16T07:40:45;109.80;;;24.17;;
5465;SDS011;2755;50.728;7.108;2024-01-16T07:43:11;109.77;;;23.30;;
5465;SDS011;2755;50.728;7.108;2024-01-16T07:45:37;110.95;;;24.60;;
5465;SDS011;2755;50.728;7.108;2024-01-16T07:48:03;111.13;;;25.00;;
5465;SDS011;2755;50.728;7.108;2024-01-16T07:50:29;111.07;;;25.23;;
5465;SDS011;2755;50.728;7.108;2024-01-16T07:52:55;111.70;;;24.03;;
5465;SDS011;2755;50.728;7.108;2024-01-16T07:55:21;112.57;;;25.70;;
5465;SDS011;2755;50.728;7.108;2024-01-16T07:57:47;109.30;;;23.13;;
5465;SDS011;2755;50.728;7.108;2024-01-16T08:00:13;110.07;;;23.30;;
5465;SDS011;2755;50.728;7.108;2024-01-16T08:02:40;111.68;;;25.05;;
5465;SDS011;2755;50.728;7.108;2024-01-16T08:05:06;110.70;;;24.90;;
5465;SDS011;2755;50.728;7.108;2024-01-16T08:07:32;110.77;;;24.10;;
5465;SDS011;2755;50.728;7.108;2024-01-16T08:09:59;109.50;;;22.53;;
5465;SDS011;2755;50.728;7.108;2024-01-16T08:12:25;110.00;;;24.90;;
5465;SDS011;2755;50.728;7.108;2024-01-16T08:14:50;108.87;;;22.37;;
5465;SDS011;2755;50.728;7.108;2024-01-16T08:17:17;110.15;;;23.45;;
5465;SDS011;2755;50.728;7.108;2024-01-16T08:19:43;110.35;;;23.63;;
5465;SDS011;2755;50.728;7.108;2024-01-16T08:22:15;109.23;;;22.37;;
5465;SDS011;2755;50.728;7.108;2024-01-16T08:24:41;107.87;;;21.07;;
5465;SDS011;2755;50.728;7.108;2024-01-16T08:27:07;109.10;;;22.60;;
5465;SDS011;2755;50.728;7.108;2024-01-16T08:29:33;110.90;;;23.50;;
5465;SDS011;2755;50.728;7.108;2024-01-16T08:31:59;110.57;;;24.50;;
5465;SDS011;2755;50.728;7.108;2024-01-16T08:37:47;109.37;;;22.50;;
5465;SDS011;2755;50.728;7.108;2024-01-16T08:40:14;110.33;;;23.10;;
5465;SDS011;2755;50.728;7.108;2024-01-16T08:42:40;110.30;;;22.93;;
5465;SDS011;2755;50.728;7.108;2024-01-16T08:45:06;109.20;;;21.60;;
5465;SDS011;2755;50.728;7.108;2024-01-16T08:47:32;108.00;;;22.50;;
5465;SDS011;2755;50.728;7.108;2024-01-16T08:49:57;110.50;;;22.57;;
5465;SDS011;2755;50.728;7.108;2024-01-16T08:52:23;112.63;;;24.13;;
5465;SDS011;2755;50.728;7.108;2024-01-16T08:54:49;110.57;;;24.87;;
5465;SDS011;2755;50.728;7.108;2024-01-16T08:57:15;111.67;;;26.30;;
5465;SDS011;2755;50.728;7.108;2024-01-16T08:59:41;112.20;;;26.50;;
5465;SDS011;2755;50.728;7.108;2024-01-16T09:02:07;112.20;;;25.67;;
5465;SDS011;2755;50.728;7.108;2024-01-16T09:04:33;110.50;;;24.13;;
5465;SDS011;2755;50.728;7.108;2024-01-16T09:06:59;112.47;;;26.70;;
5465;SDS011;2755;50.728;7.108;2024-01-16T09:09:25;113.30;;;27.90;;
5465;SDS011;2755;50.728;7.108;2024-01-16T09:11:51;113.27;;;27.47;;
5465;SDS011;2755;50.728;7.108;2024-01-16T09:14:17;113.57;;;28.60;;
5465;SDS011;2755;50.728;7.108;2024-01-16T09:16:45;115.53;;;29.10;;
5465;SDS011;2755;50.728;7.108;2024-01-16T09:19:10;112.27;;;28.33;;
5465;SDS011;2755;50.728;7.108;2024-01-16T09:21:36;112.27;;;27.80;;
5465;SDS011;2755;50.728;7.108;2024-01-16T09:24:02;115.60;;;32.67;;
5465;SDS011;2755;50.728;7.108;2024-01-16T09:26:28;113.30;;;29.23;;
5465;SDS011;2755;50.728;7.108;2024-01-16T09:28:53;114.57;;;31.47;;
5465;SDS011;2755;50.728;7.108;2024-01-16T09:31:19;116.70;;;31.97;;
5465;SDS011;2755;50.728;7.108;2024-01-16T09:33:45;117.13;;;35.67;;
5465;SDS011;2755;50.728;7.108;2024-01-16T09:36:11;117.57;;;34.80;;
5465;SDS011;2755;50.728;7.108;2024-01-16T09:38:37;116.77;;;33.97;;
5465;SDS011;2755;50.728;7.108;2024-01-16T09:41:03;118.23;;;35.50;;
5465;SDS011;2755;50.728;7.108;2024-01-16T09:43:29;118.87;;;36.20;;
5465;SDS011;2755;50.728;7.108;2024-01-16T09:45:56;120.43;;;40.40;;
5465;SDS011;2755;50.728;7.108;2024-01-16T09:48:27;120.10;;;39.27;;
5465;SDS011;2755;50.728;7.108;2024-01-16T09:50:54;119.17;;;39.00;;
5465;SDS011;2755;50.728;7.108;2024-01-16T09:53:20;121.47;;;39.77;;
5465;SDS011;2755;50.728;7.108;2024-01-16T09:55:46;118.77;;;37.80;;
5465;SDS011;2755;50.728;7.108;2024-01-16T09:58:14;120.73;;;38.47;;
5465;SDS011;2755;50.728;7.108;2024-01-16T10:00:42;121.07;;;39.97;;
5465;SDS011;2755;50.728;7.108;2024-01-16T10:03:10;121.03;;;41.13;;
5465;SDS011;2755;50.728;7.108;2024-01-16T10:05:37;123.10;;;42.50;;
5465;SDS011;2755;50.728;7.108;2024-01-16T10:08:06;121.47;;;41.00;;
5465;SDS011;2755;50.728;7.108;2024-01-16T10:10:33;120.50;;;38.40;;
5465;SDS011;2755;50.728;7.108;2024-01-16T10:12:59;116.70;;;35.43;;
5465;SDS011;2755;50.728;7.108;2024-01-16T10:15:25;119.20;;;35.00;;
5465;SDS011;2755;50.728;7.108;2024-01-16T10:17:51;116.10;;;32.50;;
5465;SDS011;2755;50.728;7.108;2024-01-16T10:20:18;115.93;;;30.80;;
5465;SDS011;2755;50.728;7.108;2024-01-16T10:23:00;112.70;;;28.90;;
5465;SDS011;2755;50.728;7.108;2024-01-16T10:25:28;113.10;;;29.23;;
5465;SDS011;2755;50.728;7.108;2024-01-16T10:28:05;113.10;;;27.00;;
5465;SDS011;2755;50.728;7.108;2024-01-16T10:30:35;114.90;;;28.77;;
5465;SDS011;2755;50.728;7.108;2024-01-16T10:33:13;114.13;;;28.27;;
5465;SDS011;2755;50.728;7.108;2024-01-16T10:35:39;113.57;;;29.50;;
5465;SDS011;2755;50.728;7.108;2024-01-16T10:38:05;113.90;;;29.60;;
5465;SDS011;2755;50.728;7.108;2024-01-16T10:40:31;116.10;;;32.53;;
5465;SDS011;2755;50.728;7.108;2024-01-16T10:42:58;114.50;;;31.80;;
5465;SDS011;2755;50.728;7.108;2024-01-16T10:45:24;116.77;;;33.70;;
5465;SDS011;2755;50.728;7.108;2024-01-16T10:48:03;116.27;;;32.60;;
5465;SDS011;2755;50.728;7.108;2024-01-16T10:50:30;115.87;;;31.20;;
5465;SDS011;2755;50.728;7.108;2024-01-16T10:52:59;114.90;;;31.63;;
5465;SDS011;2755;50.728;7.108;2024-01-16T10:55:28;115.87;;;32.53;;
5465;SDS011;2755;50.728;7.108;2024-01-16T10:57:55;115.87;;;31.50;;
5465;SDS011;2755;50.728;7.108;2024-01-16T11:00:22;114.00;;;29.57;;
5465;SDS011;2755;50.728;7.108;2024-01-16T11:02:59;114.90;;;31.57;;
5465;SDS011;2755;50.728;7.108;2024-01-16T11:05:27;115.73;;;32.57;;
5465;SDS011;2755;50.728;7.108;2024-01-16T11:08:00;114.07;;;30.10;;
5465;SDS011;2755;50.728;7.108;2024-01-16T11:10:26;116.10;;;32.10;;
5465;SDS011;2755;50.728;7.108;2024-01-16T11:12:53;115.07;;;30.80;;
5465;SDS011;2755;50.728;7.108;2024-01-16T11:15:20;114.20;;;29.27;;
5465;SDS011;2755;50.728;7.108;2024-01-16T11:17:47;112.90;;;28.43;;
5465;SDS011;2755;50.728;7.108;2024-01-16T11:20:15;115.37;;;31.87;;
5465;SDS011;2755;50.728;7.108;2024-01-16T11:22:44;112.70;;;27.97;;
5465;SDS011;2755;50.728;7.108;2024-01-16T11:25:12;112.87;;;27.37;;
5465;SDS011;2755;50.728;7.108;2024-01-16T11:27:38;115.10;;;30.50;;
5465;SDS011;2755;50.728;7.108;2024-01-16T11:30:11;114.43;;;28.60;;
5465;SDS011;2755;50.728;7.108;2024-01-16T11:32:40;115.53;;;29.43;;
5465;SDS011;2755;50.728;7.108;2024-01-16T11:35:09;114.57;;;30.60;;
5465;SDS011;2755;50.728;7.108;2024-01-16T11:37:36;113.70;;;30.17;;
5465;SDS011;2755;50.728;7.108;2024-01-16T11:42:50;113.73;;;29.37;;
5465;SDS011;2755;50.728;7.108;2024-01-16T11:48:11;112.67;;;27.30;;
5465;SDS011;2755;50.728;7.108;2024-01-16T11:50:40;112.70;;;27.53;;
5465;SDS011;2755;50.728;7.108;2024-01-16T11:53:06;115.17;;;29.80;;
5465;SDS011;2755;50.728;7.108;2024-01-16T11:59:06;113.90;;;27.07;;
5465;SDS011;2755;50.728;7.108;2024-01-16T12:01:17;111.73;;;27.70;;
5465;SDS011;2755;50.728;7.108;2024-01-16T12:04:00;113.67;;;29.80;;
5465;SDS011;2755;50.728;7.108;2024-01-16T12:06:27;114.17;;;27.97;;
5465;SDS011;2755;50.728;7.108;2024-01-16T12:08:53;112.20;;;27.93;;
5465;SDS011;2755;50.728;7.108;2024-01-16T12:11:19;114.37;;;29.33;;
5465;SDS011;2755;50.728;7.108;2024-01-16T12:14:00;114.57;;;30.27;;
5465;SDS011;2755;50.728;7.108;2024-01-16T12:16:26;114.07;;;30.00;;
5465;SDS011;2755;50.728;7.108;2024-01-16T12:19:03;113.67;;;29.83;;
5465;SDS011;2755;50.728;7.108;2024-01-16T12:21:29;117.20;;;30.67;;
5465;SDS011;2755;50.728;7.108;2024-01-16T12:23:55;117.40;;;34.87;;
5465;SDS011;2755;50.728;7.108;2024-01-16T12:26:21;117.73;;;35.20;;
5465;SDS011;2755;50.728;7.108;2024-01-16T12:28:50;117.57;;;34.43;;
5465;SDS011;2755;50.728;7.108;2024-01-16T12:31:20;116.87;;;33.23;;
5465;SDS011;2755;50.728;7.108;2024-01-16T12:33:45;115.87;;;32.00;;
5465;SDS011;2755;50.728;7.108;2024-01-16T12:36:11;114.80;;;30.27;;
5465;SDS011;2755;50.728;7.108;2024-01-16T12:38:40;113.40;;;29.80;;
5465;SDS011;2755;50.728;7.108;2024-01-16T12:41:07;112.87;;;30.27;;
5465;SDS011;2755;50.728;7.108;2024-01-16T12:43:34;114.20;;;28.57;;
5465;SDS011;2755;50.728;7.108;2024-01-16T12:46:02;113.97;;;29.77;;
5465;SDS011;2755;50.728;7.108;2024-01-16T12:48:28;110.97;;;27.10;;
5465;SDS011;2755;50.728;7.108;2024-01-16T12:51:01;113.87;;;30.00;;
5465;SDS011;2755;50.728;7.108;2024-01-16T12:53:27;113.40;;;28.27;;
5465;SDS011;2755;50.728;7.108;2024-01-16T12:55:59;112.60;;;26.90;;
5465;SDS011;2755;50.728;7.108;2024-01-16T12:58:34;111.77;;;26.50;;
5465;SDS011;2755;50.728;7.108;2024-01-16T13:03:46;112.27;;;26.73;;
5465;SDS011;2755;50.728;7.108;2024-01-16T13:06:16;112.30;;;26.90;;
5465;SDS011;2755;50.728;7.108;2024-01-16T13:08:44;112.20;;;26.33;;
5465;SDS011;2755;50.728;7.108;2024-01-16T13:11:09;110.07;;;24.10;;
5465;SDS011;2755;50.728;7.108;2024-01-16T13:13:36;109.60;;;23.97;;
5465;SDS011;2755;50.728;7.108;2024-01-16T13:16:02;111.27;;;26.37;;
5465;SDS011;2755;50.728;7.108;2024-01-16T13:18:32;113.60;;;29.10;;
5465;SDS011;2755;50.728;7.108;2024-01-16T13:20:58;112.17;;;27.20;;
5465;SDS011;2755;50.728;7.108;2024-01-16T13:23:25;112.40;;;26.90;;
5465;SDS011;2755;50.728;7.108;2024-01-16T13:25:51;111.77;;;28.33;;
5465;SDS011;2755;50.728;7.108;2024-01-16T13:28:18;111.57;;;26.17;;
5465;SDS011;2755;50.728;7.108;2024-01-16T13:30:45;113.87;;;28.17;;
5465;SDS011;2755;50.728;7.108;2024-01-16T13:33:11;111.73;;;27.37;;
5465;SDS011;2755;50.728;7.108;2024-01-16T13:35:38;113.50;;;28.07;;
5465;SDS011;2755;50.728;7.108;2024-01-16T13:38:05;112.47;;;26.20;;
5465;SDS011;2755;50.728;7.108;2024-01-16T13:40:31;110.07;;;24.90;;
5465;SDS011;2755;50.728;7.108;2024-01-16T13:42:58;111.27;;;25.20;;
5465;SDS011;2755;50.728;7.108;2024-01-16T13:45:25;110.40;;;25.80;;
5465;SDS011;2755;50.728;7.108;2024-01-16T13:47:51;111.60;;;27.00;;
5465;SDS011;2755;50.728;7.108;2024-01-16T13:50:17;111.97;;;27.17;;
5465;SDS011;2755;50.728;7.108;2024-01-16T13:52:43;113.53;;;29.70;;
5465;SDS011;2755;50.728;7.108;2024-01-16T13:55:09;114.20;;;29.27;;
5465;SDS011;2755;50.728;7.108;2024-01-16T13:57:36;113.00;;;26.90;;
5465;SDS011;2755;50.728;7.108;2024-01-16T14:00:03;112.20;;;26.00;;
5465;SDS011;2755;50.728;7.108;2024-01-16T14:02:33;111.70;;;25.83;;
5465;SDS011;2755;50.728;7.108;2024-01-16T14:05:03;112.87;;;28.50;;
5465;SDS011;2755;50.728;7.108;2024-01-16T14:07:30;112.07;;;26.47;;
5465;SDS011;2755;50.728;7.108;2024-01-16T14:09:57;112.27;;;27.73;;
5465;SDS011;2755;50.728;7.108;2024-01-16T14:12:23;112.63;;;28.20;;
5465;SDS011;2755;50.728;7.108;2024-01-16T14:14:49;113.93;;;26.67;;
5465;SDS011;2755;50.728;7.108;2024-01-16T14:17:16;112.27;;;26.47;;
5465;SDS011;2755;50.728;7.108;2024-01-16T14:19:42;112.87;;;26.70;;
5465;SDS011;2755;50.728;7.108;2024-01-16T14:22:08;110.77;;;25.97;;
5465;SDS011;2755;50.728;7.108;2024-01-16T14:24:34;111.23;;;24.67;;
5465;SDS011;2755;50.728;7.108;2024-01-16T14:26:59;111.83;;;27.37;;
5465;SDS011;2755;50.728;7.108;2024-01-16T14:29:25;111.63;;;26.27;;
5465;SDS011;2755;50.728;7.108;2024-01-16T14:31:51;110.60;;;24.93;;
5465;SDS011;2755;50.728;7.108;2024-01-16T14:34:20;111.50;;;26.80;;
5465;SDS011;2755;50.728;7.108;2024-01-16T14:36:46;111.00;;;25.73;;
5465;SDS011;2755;50.728;7.108;2024-01-16T14:39:12;108.47;;;22.90;;
5465;SDS011;2755;50.728;7.108;2024-01-16T14:41:41;111.37;;;26.97;;
5465;SDS011;2755;50.728;7.108;2024-01-16T14:44:09;114.80;;;27.37;;
5465;SDS011;2755;50.728;7.108;2024-01-16T14:46:37;110.30;;;24.97;;
5465;SDS011;2755;50.728;7.108;2024-01-16T14:49:05;111.50;;;24.70;;